sensor_id;sensor_type;location;lat;lon;timestamp;P1;durP1;ratioP1;P2;durP2;ratioP2
76892;SDS011;65854;51.466;7.260;2023-01-31T00:01:25;17.15;;;2.42;;
76892;SDS011;65854;51.466;7.260;2023-01-31T00:03:53;17.83;;;2.15;;
76892;SDS011;65854;51.466;7.260;2023-01-31T00:06:21;26.00;;;3.50;;
76892;SDS011;65854;51.466;7.260;2023-01-31T00:08:47;17.13;;;3.08;;
76892;SDS011;65854;51.466;7.260;2023-01-31T00:11:14;16.67;;;2.50;;
76892;SDS011;65854;51.466;7.260;2023-01-31T00:13:41;17.23;;;2.60;;
76892;SDS011;65854;51.466;7.260;2023-01-31T00:16:07;19.13;;;2.50;;
76892;SDS011;65854;51.466;7.260;2023-01-31T00:18:34;21.07;;;2.37;;
76892;SDS011;65854;51.466;7.260;2023-01-31T00:21:11;19.38;;;2.28;;
76892;SDS011;65854;51.466;7.260;2023-01-31T00:23:37;21.30;;;3.15;;
76892;SDS011;65854;51.466;7.260;2023-01-31T00:26:11;18.83;;;2.72;;
76892;SDS011;65854;51.466;7.260;2023-01-31T00:28:39;20.15;;;2.83;;
76892;SDS011;65854;51.466;7.260;2023-01-31T00:31:06;28.20;;;4.13;;
76892;SDS011;65854;51.466;7.260;2023-01-31T00:33:32;20.33;;;3.50;;
76892;SDS011;65854;51.466;7.260;2023-01-31T00:36:01;19.77;;;2.78;;
76892;SDS011;65854;51.466;7.260;2023-01-31T00:38:37;23.38;;;3.53;;
76892;SDS011;65854;51.466;7.260;2023-01-31T00:41:03;18.83;;;3.17;;
76892;SDS011;65854;51.466;7.260;2023-01-31T00:43:29;18.95;;;2.70;;
76892;SDS011;65854;51.466;7.260;2023-01-31T00:45:56;19.52;;;3.35;;
76892;SDS011;65854;51.466;7.260;2023-01-31T00:48:22;14.37;;;2.70;;
76892;SDS011;65854;51.466;7.260;2023-01-31T00:50:47;16.80;;;2.65;;
76892;SDS011;65854;51.466;7.260;2023-01-31T00:53:13;17.70;;;3.17;;
76892;SDS011;65854;51.466;7.260;2023-01-31T00:55:39;16.33;;;2.65;;
76892;SDS011;65854;51.466;7.260;2023-01-31T00:58:04;23.10;;;3.20;;
76892;SDS011;65854;51.466;7.260;2023-01-31T01:00:30;18.58;;;2.67;;
76892;SDS011;65854;51.466;7.260;2023-01-31T01:02:55;18.57;;;3.17;;
76892;SDS011;65854;51.466;7.260;2023-01-31T01:05:21;18.37;;;2.70;;
76892;SDS011;65854;51.466;7.260;2023-01-31T01:07:46;19.73;;;3.10;;
76892;SDS011;65854;51.466;7.260;2023-01-31T01:10:12;22.33;;;3.00;;
76892;SDS011;65854;51.466;7.260;2023-01-31T01:12:38;23.27;;;3.47;;
76892;SDS011;65854;51.466;7.260;2023-01-31T01:15:03;21.90;;;3.22;;
76892;SDS011;65854;51.466;7.260;2023-01-31T01:17:32;16.45;;;3.22;;
76892;SDS011;65854;51.466;7.260;2023-01-31T01:19:58;20.90;;;2.83;;
76892;SDS011;65854;51.466;7.260;2023-01-31T01:22:27;21.27;;;2.97;;
76892;SDS011;65854;51.466;7.260;2023-01-31T01:24:53;22.63;;;3.27;;
76892;SDS011;65854;51.466;7.260;2023-01-31T01:27:19;19.80;;;3.28;;
76892;SDS011;65854;51.466;7.260;2023-01-31T01:29:44;18.07;;;2.70;;
76892;SDS011;65854;51.466;7.260;2023-01-31T01:32:10;24.67;;;3.10;;
76892;SDS011;65854;51.466;7.260;2023-01-31T01:34:36;20.50;;;3.58;;
76892;SDS011;65854;51.466;7.260;2023-01-31T01:37:02;16.30;;;3.00;;
76892;SDS011;65854;51.466;7.260;2023-01-31T01:39:35;15.68;;;2.58;;
76892;SDS011;65854;51.466;7.260;2023-01-31T01:42:02;17.52;;;3.13;;
76892;SDS011;65854;51.466;7.260;2023-01-31T01:49:45;21.88;;;3.28;;
76892;SDS011;65854;51.466;7.260;2023-01-31T01:52:17;17.17;;;3.03;;
76892;SDS011;65854;51.466;7.260;2023-01-31T01:54:46;18.58;;;3.15;;
76892;SDS011;65854;51.466;7.260;2023-01-31T01:57:34;17.35;;;2.75;;
76892;SDS011;65854;51.466;7.260;2023-01-31T02:00:07;19.93;;;3.00;;
76892;SDS011;65854;51.466;7.260;2023-01-31T02:02:39;18.75;;;2.78;;
76892;SDS011;65854;51.466;7.260;2023-01-31T02:05:06;17.23;;;3.13;;
76892;SDS011;65854;51.466;7.260;2023-01-31T02:07:32;15.18;;;2.67;;
76892;SDS011;65854;51.466;7.260;2023-01-31T02:10:16;17.67;;;2.63;;
76892;SDS011;65854;51.466;7.260;2023-01-31T02:12:48;19.77;;;2.63;;
76892;SDS011;65854;51.466;7.260;2023-01-31T02:15:14;13.50;;;2.35;;
76892;SDS011;65854;51.466;7.260;2023-01-31T02:17:40;19.38;;;2.63;;
76892;SDS011;65854;51.466;7.260;2023-01-31T02:20:17;16.00;;;3.03;;
76892;SDS011;65854;51.466;7.260;2023-01-31T02:25:53;19.52;;;3.20;;
76892;SDS011;65854;51.466;7.260;2023-01-31T02:28:59;16.83;;;2.43;;
76892;SDS011;65854;51.466;7.260;2023-01-31T02:34:43;21.10;;;3.28;;
76892;SDS011;65854;51.466;7.260;2023-01-31T02:40:21;18.20;;;2.60;;
76892;SDS011;65854;51.466;7.260;2023-01-31T02:42:52;16.33;;;2.50;;
76892;SDS011;65854;51.466;7.260;2023-01-31T02:51:13;12.48;;;2.30;;
76892;SDS011;65854;51.466;7.260;2023-01-31T02:54:04;21.05;;;2.83;;
76892;SDS011;65854;51.466;7.260;2023-01-31T02:56:35;18.30;;;3.07;;
76892;SDS011;65854;51.466;7.260;2023-01-31T02:59:26;13.45;;;2.20;;
76892;SDS011;65854;51.466;7.260;2023-01-31T03:02:00;18.52;;;3.20;;
76892;SDS011;65854;51.466;7.260;2023-01-31T03:04:30;18.77;;;2.95;;
76892;SDS011;65854;51.466;7.260;2023-01-31T03:07:02;18.98;;;2.70;;
76892;SDS011;65854;51.466;7.260;2023-01-31T03:14:54;15.52;;;2.72;;
76892;SDS011;65854;51.466;7.260;2023-01-31T03:20:29;17.25;;;3.22;;
76892;SDS011;65854;51.466;7.260;2023-01-31T03:23:04;13.13;;;2.53;;
76892;SDS011;65854;51.466;7.260;2023-01-31T03:25:34;14.50;;;2.50;;
76892;SDS011;65854;51.466;7.260;2023-01-31T03:28:02;18.92;;;2.60;;
76892;SDS011;65854;51.466;7.260;2023-01-31T03:33:29;13.23;;;2.60;;
76892;SDS011;65854;51.466;7.260;2023-01-31T03:38:49;16.00;;;2.80;;
76892;SDS011;65854;51.466;7.260;2023-01-31T03:41:30;14.07;;;2.38;;
76892;SDS011;65854;51.466;7.260;2023-01-31T03:44:14;14.98;;;2.63;;
76892;SDS011;65854;51.466;7.260;2023-01-31T03:46:52;15.15;;;2.42;;
76892;SDS011;65854;51.466;7.260;2023-01-31T03:49:23;18.57;;;2.57;;
76892;SDS011;65854;51.466;7.260;2023-01-31T03:51:53;15.25;;;2.45;;
76892;SDS011;65854;51.466;7.260;2023-01-31T03:54:25;17.02;;;2.47;;
76892;SDS011;65854;51.466;7.260;2023-01-31T03:56:59;14.57;;;2.55;;
76892;SDS011;65854;51.466;7.260;2023-01-31T03:59:31;16.38;;;2.60;;
76892;SDS011;65854;51.466;7.260;2023-01-31T04:02:01;17.50;;;2.50;;
76892;SDS011;65854;51.466;7.260;2023-01-31T04:04:32;16.88;;;2.67;;
76892;SDS011;65854;51.466;7.260;2023-01-31T04:07:16;12.75;;;2.30;;
76892;SDS011;65854;51.466;7.260;2023-01-31T04:09:42;19.60;;;2.30;;
76892;SDS011;65854;51.466;7.260;2023-01-31T04:12:08;13.38;;;1.83;;
76892;SDS011;65854;51.466;7.260;2023-01-31T04:14:37;13.82;;;2.22;;
76892;SDS011;65854;51.466;7.260;2023-01-31T04:17:02;13.73;;;1.83;;
76892;SDS011;65854;51.466;7.260;2023-01-31T04:19:28;12.70;;;2.17;;
76892;SDS011;65854;51.466;7.260;2023-01-31T04:21:53;16.20;;;2.53;;
76892;SDS011;65854;51.466;7.260;2023-01-31T04:24:19;16.37;;;2.57;;
76892;SDS011;65854;51.466;7.260;2023-01-31T04:26:44;17.88;;;2.75;;
76892;SDS011;65854;51.466;7.260;2023-01-31T04:29:10;16.63;;;2.60;;
76892;SDS011;65854;51.466;7.260;2023-01-31T04:31:36;17.73;;;2.60;;
76892;SDS011;65854;51.466;7.260;2023-01-31T04:34:01;14.50;;;2.22;;
76892;SDS011;65854;51.466;7.260;2023-01-31T04:36:27;16.93;;;2.67;;
76892;SDS011;65854;51.466;7.260;2023-01-31T04:38:53;15.90;;;2.60;;
76892;SDS011;65854;51.466;7.260;2023-01-31T04:41:18;11.75;;;2.40;;
76892;SDS011;65854;51.466;7.260;2023-01-31T04:43:44;11.87;;;2.57;;
76892;SDS011;65854;51.466;7.260;2023-01-31T04:46:09;17.10;;;3.63;;
76892;SDS011;65854;51.466;7.260;2023-01-31T04:48:35;14.32;;;2.45;;
76892;SDS011;65854;51.466;7.260;2023-01-31T04:51:01;15.43;;;2.88;;
76892;SDS011;65854;51.466;7.260;2023-01-31T04:53:26;18.60;;;3.58;;
76892;SDS011;65854;51.466;7.260;2023-01-31T04:55:53;14.50;;;3.00;;
76892;SDS011;65854;51.466;7.260;2023-01-31T04:58:19;19.87;;;3.20;;
76892;SDS011;65854;51.466;7.260;2023-01-31T05:00:44;16.80;;;2.90;;
76892;SDS011;65854;51.466;7.260;2023-01-31T05:03:10;16.17;;;3.37;;
76892;SDS011;65854;51.466;7.260;2023-01-31T05:05:36;16.65;;;3.15;;
76892;SDS011;65854;51.466;7.260;2023-01-31T05:08:02;16.98;;;3.38;;
76892;SDS011;65854;51.466;7.260;2023-01-31T05:10:28;14.83;;;3.27;;
76892;SDS011;65854;51.466;7.260;2023-01-31T05:12:53;13.87;;;2.90;;
76892;SDS011;65854;51.466;7.260;2023-01-31T05:15:19;16.27;;;2.83;;
76892;SDS011;65854;51.466;7.260;2023-01-31T05:17:49;18.97;;;3.77;;
76892;SDS011;65854;51.466;7.260;2023-01-31T05:20:17;18.70;;;3.50;;
76892;SDS011;65854;51.466;7.260;2023-01-31T05:22:45;22.75;;;4.70;;
76892;SDS011;65854;51.466;7.260;2023-01-31T05:25:12;15.00;;;3.58;;
76892;SDS011;65854;51.466;7.260;2023-01-31T05:27:38;15.03;;;3.37;;
76892;SDS011;65854;51.466;7.260;2023-01-31T05:30:04;17.50;;;3.22;;
76892;SDS011;65854;51.466;7.260;2023-01-31T05:32:30;13.80;;;3.20;;
76892;SDS011;65854;51.466;7.260;2023-01-31T05:34:55;15.20;;;3.70;;
76892;SDS011;65854;51.466;7.260;2023-01-31T05:37:21;15.37;;;3.40;;
76892;SDS011;65854;51.466;7.260;2023-01-31T05:39:46;13.37;;;3.20;;
76892;SDS011;65854;51.466;7.260;2023-01-31T05:42:12;20.02;;;4.55;;
76892;SDS011;65854;51.466;7.260;2023-01-31T05:44:37;20.07;;;4.20;;
76892;SDS011;65854;51.466;7.260;2023-01-31T05:47:03;19.03;;;4.50;;
76892;SDS011;65854;51.466;7.260;2023-01-31T05:49:29;22.30;;;4.50;;
76892;SDS011;65854;51.466;7.260;2023-01-31T05:51:58;16.63;;;4.00;;
76892;SDS011;65854;51.466;7.260;2023-01-31T05:54:24;23.38;;;4.25;;
76892;SDS011;65854;51.466;7.260;2023-01-31T05:56:50;20.20;;;4.63;;
76892;SDS011;65854;51.466;7.260;2023-01-31T05:59:15;22.93;;;4.17;;
76892;SDS011;65854;51.466;7.260;2023-01-31T06:01:41;19.87;;;4.47;;
76892;SDS011;65854;51.466;7.260;2023-01-31T06:04:06;22.20;;;4.57;;
76892;SDS011;65854;51.466;7.260;2023-01-31T06:06:34;20.27;;;4.53;;
76892;SDS011;65854;51.466;7.260;2023-01-31T06:08:59;15.73;;;4.40;;
76892;SDS011;65854;51.466;7.260;2023-01-31T06:11:28;21.00;;;4.60;;
76892;SDS011;65854;51.466;7.260;2023-01-31T06:13:53;15.25;;;4.22;;
76892;SDS011;65854;51.466;7.260;2023-01-31T06:16:21;16.20;;;4.53;;
76892;SDS011;65854;51.466;7.260;2023-01-31T06:18:47;19.43;;;4.30;;
76892;SDS011;65854;51.466;7.260;2023-01-31T06:21:13;23.83;;;4.55;;
76892;SDS011;65854;51.466;7.260;2023-01-31T06:23:40;18.10;;;4.35;;
76892;SDS011;65854;51.466;7.260;2023-01-31T06:26:10;15.33;;;3.60;;
76892;SDS011;65854;51.466;7.260;2023-01-31T06:28:36;17.13;;;4.22;;
76892;SDS011;65854;51.466;7.260;2023-01-31T06:31:05;14.50;;;3.47;;
76892;SDS011;65854;51.466;7.260;2023-01-31T06:33:35;16.77;;;4.30;;
76892;SDS011;65854;51.466;7.260;2023-01-31T06:36:01;18.33;;;4.00;;
76892;SDS011;65854;51.466;7.260;2023-01-31T06:38:27;16.88;;;4.28;;
76892;SDS011;65854;51.466;7.260;2023-01-31T06:40:53;20.27;;;4.32;;
76892;SDS011;65854;51.466;7.260;2023-01-31T06:43:19;17.90;;;3.90;;
76892;SDS011;65854;51.466;7.260;2023-01-31T06:45:44;15.57;;;4.22;;
76892;SDS011;65854;51.466;7.260;2023-01-31T06:48:10;20.27;;;3.97;;
76892;SDS011;65854;51.466;7.260;2023-01-31T06:50:36;18.77;;;4.57;;
76892;SDS011;65854;51.466;7.260;2023-01-31T06:53:02;18.70;;;4.30;;
76892;SDS011;65854;51.466;7.260;2023-01-31T06:55:27;21.58;;;4.45;;
76892;SDS011;65854;51.466;7.260;2023-01-31T06:57:53;16.70;;;4.20;;
76892;SDS011;65854;51.466;7.260;2023-01-31T07:00:21;18.25;;;3.83;;
76892;SDS011;65854;51.466;7.260;2023-01-31T07:02:49;25.00;;;4.90;;
76892;SDS011;65854;51.466;7.260;2023-01-31T07:05:16;16.65;;;4.18;;
76892;SDS011;65854;51.466;7.260;2023-01-31T07:07:42;18.80;;;4.43;;
76892;SDS011;65854;51.466;7.260;2023-01-31T07:10:08;27.75;;;5.88;;
76892;SDS011;65854;51.466;7.260;2023-01-31T07:12:34;22.23;;;5.35;;
76892;SDS011;65854;51.466;7.260;2023-01-31T07:15:00;14.90;;;4.13;;
76892;SDS011;65854;51.466;7.260;2023-01-31T07:17:29;20.70;;;5.03;;
76892;SDS011;65854;51.466;7.260;2023-01-31T07:19:54;21.57;;;4.67;;
76892;SDS011;65854;51.466;7.260;2023-01-31T07:22:20;21.27;;;5.07;;
76892;SDS011;65854;51.466;7.260;2023-01-31T07:24:45;22.13;;;5.13;;
76892;SDS011;65854;51.466;7.260;2023-01-31T07:27:13;19.23;;;5.05;;
76892;SDS011;65854;51.466;7.260;2023-01-31T07:29:39;24.20;;;5.63;;
76892;SDS011;65854;51.466;7.260;2023-01-31T07:32:05;20.08;;;4.88;;
76892;SDS011;65854;51.466;7.260;2023-01-31T07:34:31;20.10;;;4.82;;
76892;SDS011;65854;51.466;7.260;2023-01-31T07:36:56;17.20;;;4.40;;
76892;SDS011;65854;51.466;7.260;2023-01-31T07:41:57;15.32;;;4.30;;
76892;SDS011;65854;51.466;7.260;2023-01-31T07:44:23;20.83;;;4.43;;
76892;SDS011;65854;51.466;7.260;2023-01-31T07:46:49;19.73;;;4.30;;
76892;SDS011;65854;51.466;7.260;2023-01-31T07:49:16;22.83;;;4.82;;
76892;SDS011;65854;51.466;7.260;2023-01-31T07:51:41;21.07;;;4.20;;
76892;SDS011;65854;51.466;7.260;2023-01-31T07:54:08;19.15;;;4.43;;
76892;SDS011;65854;51.466;7.260;2023-01-31T07:56:35;20.88;;;5.07;;
76892;SDS011;65854;51.466;7.260;2023-01-31T07:59:00;18.80;;;4.07;;
76892;SDS011;65854;51.466;7.260;2023-01-31T08:01:26;21.60;;;4.30;;
76892;SDS011;65854;51.466;7.260;2023-01-31T08:04:12;18.35;;;4.05;;
76892;SDS011;65854;51.466;7.260;2023-01-31T08:06:40;19.70;;;4.40;;
76892;SDS011;65854;51.466;7.260;2023-01-31T08:09:07;17.23;;;3.88;;
76892;SDS011;65854;51.466;7.260;2023-01-31T08:11:33;20.60;;;3.80;;
76892;SDS011;65854;51.466;7.260;2023-01-31T08:13:58;18.33;;;3.92;;
76892;SDS011;65854;51.466;7.260;2023-01-31T08:16:24;16.77;;;4.03;;
76892;SDS011;65854;51.466;7.260;2023-01-31T08:18:50;19.33;;;4.17;;
76892;SDS011;65854;51.466;7.260;2023-01-31T08:21:16;18.27;;;4.18;;
76892;SDS011;65854;51.466;7.260;2023-01-31T08:23:42;20.23;;;3.85;;
76892;SDS011;65854;51.466;7.260;2023-01-31T08:26:15;20.25;;;3.78;;
76892;SDS011;65854;51.466;7.260;2023-01-31T08:28:46;16.60;;;3.63;;
76892;SDS011;65854;51.466;7.260;2023-01-31T08:31:22;18.77;;;3.40;;
76892;SDS011;65854;51.466;7.260;2023-01-31T08:33:52;17.02;;;3.63;;
76892;SDS011;65854;51.466;7.260;2023-01-31T08:36:22;13.52;;;3.10;;
76892;SDS011;65854;51.466;7.260;2023-01-31T08:38:50;16.13;;;3.20;;
76892;SDS011;65854;51.466;7.260;2023-01-31T08:41:20;16.98;;;3.40;;
76892;SDS011;65854;51.466;7.260;2023-01-31T08:43:47;24.23;;;3.80;;
76892;SDS011;65854;51.466;7.260;2023-01-31T08:46:13;15.88;;;3.05;;
76892;SDS011;65854;51.466;7.260;2023-01-31T08:48:39;15.50;;;3.42;;
76892;SDS011;65854;51.466;7.260;2023-01-31T08:51:06;22.83;;;4.05;;
76892;SDS011;65854;51.466;7.260;2023-01-31T08:53:36;15.30;;;3.27;;
76892;SDS011;65854;51.466;7.260;2023-01-31T08:56:03;15.45;;;3.25;;
76892;SDS011;65854;51.466;7.260;2023-01-31T08:58:30;19.40;;;3.75;;
76892;SDS011;65854;51.466;7.260;2023-01-31T09:01:05;14.35;;;3.83;;
76892;SDS011;65854;51.466;7.260;2023-01-31T09:03:33;17.80;;;3.63;;
76892;SDS011;65854;51.466;7.260;2023-01-31T09:06:03;22.20;;;3.20;;
76892;SDS011;65854;51.466;7.260;2023-01-31T09:08:31;19.83;;;3.65;;
76892;SDS011;65854;51.466;7.260;2023-01-31T09:10:57;20.60;;;4.32;;
76892;SDS011;65854;51.466;7.260;2023-01-31T09:13:24;17.80;;;3.95;;
76892;SDS011;65854;51.466;7.260;2023-01-31T09:16:00;15.73;;;3.85;;
76892;SDS011;65854;51.466;7.260;2023-01-31T09:18:26;16.50;;;2.97;;
76892;SDS011;65854;51.466;7.260;2023-01-31T09:20:52;21.15;;;4.35;;
76892;SDS011;65854;51.466;7.260;2023-01-31T09:23:18;15.73;;;4.30;;
76892;SDS011;65854;51.466;7.260;2023-01-31T09:25:51;18.77;;;3.78;;
76892;SDS011;65854;51.466;7.260;2023-01-31T09:28:20;16.40;;;4.05;;
76892;SDS011;65854;51.466;7.260;2023-01-31T09:33:22;19.48;;;3.88;;
76892;SDS011;65854;51.466;7.260;2023-01-31T09:39:04;16.65;;;3.17;;
76892;SDS011;65854;51.466;7.260;2023-01-31T09:44:02;14.73;;;2.75;;
76892;SDS011;65854;51.466;7.260;2023-01-31T09:46:35;14.27;;;2.70;;
76892;SDS011;65854;51.466;7.260;2023-01-31T09:49:07;16.93;;;3.30;;
76892;SDS011;65854;51.466;7.260;2023-01-31T09:54:20;16.98;;;3.53;;
76892;SDS011;65854;51.466;7.260;2023-01-31T09:56:59;16.58;;;2.53;;
76892;SDS011;65854;51.466;7.260;2023-01-31T10:07:40;17.10;;;2.85;;
76892;SDS011;65854;51.466;7.260;2023-01-31T10:13:08;15.40;;;2.60;;
76892;SDS011;65854;51.466;7.260;2023-01-31T10:16:30;14.60;;;2.60;;
76892;SDS011;65854;51.466;7.260;2023-01-31T10:18:50;21.35;;;2.90;;
76892;SDS011;65854;51.466;7.260;2023-01-31T10:24:19;14.95;;;2.55;;
76892;SDS011;65854;51.466;7.260;2023-01-31T10:29:49;16.83;;;3.40;;
76892;SDS011;65854;51.466;7.260;2023-01-31T10:32:29;19.25;;;2.95;;
76892;SDS011;65854;51.466;7.260;2023-01-31T10:35:03;19.75;;;2.92;;
76892;SDS011;65854;51.466;7.260;2023-01-31T10:37:40;15.60;;;3.22;;
76892;SDS011;65854;51.466;7.260;2023-01-31T10:42:45;13.10;;;3.55;;
76892;SDS011;65854;51.466;7.260;2023-01-31T10:45:20;17.80;;;3.45;;
76892;SDS011;65854;51.466;7.260;2023-01-31T10:47:51;16.02;;;3.95;;
76892;SDS011;65854;51.466;7.260;2023-01-31T10:53:39;12.52;;;3.53;;
76892;SDS011;65854;51.466;7.260;2023-01-31T10:56:33;15.60;;;3.43;;
76892;SDS011;65854;51.466;7.260;2023-01-31T10:59:03;12.80;;;3.58;;
76892;SDS011;65854;51.466;7.260;2023-01-31T11:01:33;13.80;;;3.88;;
76892;SDS011;65854;51.466;7.260;2023-01-31T11:03:59;14.70;;;3.65;;
76892;SDS011;65854;51.466;7.260;2023-01-31T11:06:26;13.75;;;3.72;;
76892;SDS011;65854;51.466;7.260;2023-01-31T11:08:58;14.87;;;3.87;;
76892;SDS011;65854;51.466;7.260;2023-01-31T11:11:25;14.90;;;3.45;;
76892;SDS011;65854;51.466;7.260;2023-01-31T11:14:03;12.73;;;4.07;;
76892;SDS011;65854;51.466;7.260;2023-01-31T11:16:32;15.82;;;4.22;;
76892;SDS011;65854;51.466;7.260;2023-01-31T11:19:01;17.65;;;4.05;;
76892;SDS011;65854;51.466;7.260;2023-01-31T11:21:37;15.73;;;4.28;;
76892;SDS011;65854;51.466;7.260;2023-01-31T11:24:04;15.95;;;4.10;;
76892;SDS011;65854;51.466;7.260;2023-01-31T11:26:39;17.15;;;3.88;;
76892;SDS011;65854;51.466;7.260;2023-01-31T11:29:28;16.98;;;3.97;;
76892;SDS011;65854;51.466;7.260;2023-01-31T11:31:57;13.93;;;4.30;;
76892;SDS011;65854;51.466;7.260;2023-01-31T11:34:26;16.77;;;4.03;;
76892;SDS011;65854;51.466;7.260;2023-01-31T11:37:01;15.85;;;4.35;;
76892;SDS011;65854;51.466;7.260;2023-01-31T11:39:30;18.80;;;4.80;;
76892;SDS011;65854;51.466;7.260;2023-01-31T11:42:20;18.50;;;4.10;;
76892;SDS011;65854;51.466;7.260;2023-01-31T11:44:56;19.23;;;4.60;;
76892;SDS011;65854;51.466;7.260;2023-01-31T11:47:37;17.85;;;4.22;;
76892;SDS011;65854;51.466;7.260;2023-01-31T11:50:14;24.20;;;6.30;;
76892;SDS011;65854;51.466;7.260;2023-01-31T11:52:44;19.23;;;4.80;;
76892;SDS011;65854;51.466;7.260;2023-01-31T11:55:15;13.27;;;4.43;;
76892;SDS011;65854;51.466;7.260;2023-01-31T11:58:12;16.08;;;3.97;;
76892;SDS011;65854;51.466;7.260;2023-01-31T12:00:50;13.20;;;4.17;;
76892;SDS011;65854;51.466;7.260;2023-01-31T12:03:28;14.50;;;4.50;;
76892;SDS011;65854;51.466;7.260;2023-01-31T12:05:59;16.92;;;5.18;;
76892;SDS011;65854;51.466;7.260;2023-01-31T12:08:28;19.75;;;4.63;;
76892;SDS011;65854;51.466;7.260;2023-01-31T12:10:57;17.17;;;4.53;;
76892;SDS011;65854;51.466;7.260;2023-01-31T12:13:23;14.30;;;4.93;;
76892;SDS011;65854;51.466;7.260;2023-01-31T12:21:15;19.27;;;5.28;;
76892;SDS011;65854;51.466;7.260;2023-01-31T12:31:52;22.35;;;5.22;;
76892;SDS011;65854;51.466;7.260;2023-01-31T12:37:20;19.02;;;5.22;;
76892;SDS011;65854;51.466;7.260;2023-01-31T12:40:15;21.47;;;5.60;;
76892;SDS011;65854;51.466;7.260;2023-01-31T12:43:26;18.02;;;5.28;;
76892;SDS011;65854;51.466;7.260;2023-01-31T12:46:13;16.60;;;6.32;;
76892;SDS011;65854;51.466;7.260;2023-01-31T12:54:24;14.37;;;4.60;;
76892;SDS011;65854;51.466;7.260;2023-01-31T12:56:57;15.27;;;5.32;;
76892;SDS011;65854;51.466;7.260;2023-01-31T12:59:55;18.13;;;5.55;;
76892;SDS011;65854;51.466;7.260;2023-01-31T13:02:44;14.18;;;4.57;;
76892;SDS011;65854;51.466;7.260;2023-01-31T13:13:27;17.67;;;7.57;;
76892;SDS011;65854;51.466;7.260;2023-01-31T13:16:09;23.85;;;7.40;;
76892;SDS011;65854;51.466;7.260;2023-01-31T13:18:40;21.58;;;7.07;;
76892;SDS011;65854;51.466;7.260;2023-01-31T13:21:07;21.80;;;6.80;;
76892;SDS011;65854;51.466;7.260;2023-01-31T13:23:41;21.95;;;8.30;;
76892;SDS011;65854;51.466;7.260;2023-01-31T13:28:58;18.23;;;6.72;;
76892;SDS011;65854;51.466;7.260;2023-01-31T13:31:35;22.80;;;8.45;;
76892;SDS011;65854;51.466;7.260;2023-01-31T13:34:27;24.13;;;9.47;;
76892;SDS011;65854;51.466;7.260;2023-01-31T13:36:59;16.60;;;6.13;;
76892;SDS011;65854;51.466;7.260;2023-01-31T13:42:21;29.30;;;9.57;;
76892;SDS011;65854;51.466;7.260;2023-01-31T13:44:46;23.03;;;8.60;;
76892;SDS011;65854;51.466;7.260;2023-01-31T13:49:54;24.92;;;9.10;;
76892;SDS011;65854;51.466;7.260;2023-01-31T13:52:31;24.27;;;10.32;;
76892;SDS011;65854;51.466;7.260;2023-01-31T13:55:08;23.83;;;10.07;;
76892;SDS011;65854;51.466;7.260;2023-01-31T13:57:40;20.45;;;8.98;;
76892;SDS011;65854;51.466;7.260;2023-01-31T14:03:07;21.33;;;10.20;;
76892;SDS011;65854;51.466;7.260;2023-01-31T14:13:42;24.30;;;10.57;;
76892;SDS011;65854;51.466;7.260;2023-01-31T14:19:00;25.88;;;11.00;;
76892;SDS011;65854;51.466;7.260;2023-01-31T14:24:01;24.73;;;10.82;;
76892;SDS011;65854;51.466;7.260;2023-01-31T14:26:34;25.15;;;10.65;;
76892;SDS011;65854;51.466;7.260;2023-01-31T14:29:20;32.35;;;11.30;;
76892;SDS011;65854;51.466;7.260;2023-01-31T14:31:50;26.40;;;11.00;;
76892;SDS011;65854;51.466;7.260;2023-01-31T14:34:20;19.70;;;10.27;;
76892;SDS011;65854;51.466;7.260;2023-01-31T14:37:09;20.88;;;10.13;;
76892;SDS011;65854;51.466;7.260;2023-01-31T14:42:33;24.63;;;11.10;;
76892;SDS011;65854;51.466;7.260;2023-01-31T14:47:54;28.60;;;12.00;;
76892;SDS011;65854;51.466;7.260;2023-01-31T14:58:42;27.23;;;12.03;;
76892;SDS011;65854;51.466;7.260;2023-01-31T15:01:09;20.20;;;9.20;;
76892;SDS011;65854;51.466;7.260;2023-01-31T15:03:51;24.92;;;11.15;;
76892;SDS011;65854;51.466;7.260;2023-01-31T15:11:48;25.73;;;11.40;;
76892;SDS011;65854;51.466;7.260;2023-01-31T15:14:23;23.35;;;11.48;;
76892;SDS011;65854;51.466;7.260;2023-01-31T15:17:16;25.33;;;12.50;;
76892;SDS011;65854;51.466;7.260;2023-01-31T15:20:32;24.95;;;11.90;;
76892;SDS011;65854;51.466;7.260;2023-01-31T15:22:43;23.40;;;10.88;;
76892;SDS011;65854;51.466;7.260;2023-01-31T15:25:20;26.03;;;12.13;;
76892;SDS011;65854;51.466;7.260;2023-01-31T15:27:54;19.08;;;9.93;;
76892;SDS011;65854;51.466;7.260;2023-01-31T15:30:21;25.90;;;11.82;;
76892;SDS011;65854;51.466;7.260;2023-01-31T15:35:27;28.85;;;13.07;;
76892;SDS011;65854;51.466;7.260;2023-01-31T15:37:57;30.80;;;14.63;;
76892;SDS011;65854;51.466;7.260;2023-01-31T15:40:27;29.27;;;13.30;;
76892;SDS011;65854;51.466;7.260;2023-01-31T15:42:53;29.58;;;13.48;;
76892;SDS011;65854;51.466;7.260;2023-01-31T15:45:40;31.10;;;13.68;;
76892;SDS011;65854;51.466;7.260;2023-01-31T15:48:13;34.73;;;15.23;;
76892;SDS011;65854;51.466;7.260;2023-01-31T15:50:55;35.88;;;16.20;;
76892;SDS011;65854;51.466;7.260;2023-01-31T15:53:24;32.40;;;15.25;;
76892;SDS011;65854;51.466;7.260;2023-01-31T15:55:53;38.58;;;16.63;;
76892;SDS011;65854;51.466;7.260;2023-01-31T15:58:24;36.87;;;15.50;;
76892;SDS011;65854;51.466;7.260;2023-01-31T16:00:52;32.92;;;15.95;;
76892;SDS011;65854;51.466;7.260;2023-01-31T16:03:29;32.70;;;15.65;;
76892;SDS011;65854;51.466;7.260;2023-01-31T16:05:58;30.70;;;13.93;;
76892;SDS011;65854;51.466;7.260;2023-01-31T16:11:00;29.67;;;12.90;;
76892;SDS011;65854;51.466;7.260;2023-01-31T16:13:35;28.75;;;12.43;;
76892;SDS011;65854;51.466;7.260;2023-01-31T16:16:03;30.25;;;12.93;;
76892;SDS011;65854;51.466;7.260;2023-01-31T16:18:31;31.17;;;13.10;;
76892;SDS011;65854;51.466;7.260;2023-01-31T16:21:11;24.70;;;12.60;;
76892;SDS011;65854;51.466;7.260;2023-01-31T16:23:39;31.40;;;12.97;;
76892;SDS011;65854;51.466;7.260;2023-01-31T16:28:46;24.63;;;11.80;;
76892;SDS011;65854;51.466;7.260;2023-01-31T16:31:17;24.67;;;12.02;;
76892;SDS011;65854;51.466;7.260;2023-01-31T16:36:31;18.17;;;8.82;;
76892;SDS011;65854;51.466;7.260;2023-01-31T16:39:27;26.23;;;10.48;;
76892;SDS011;65854;51.466;7.260;2023-01-31T16:41:58;18.45;;;9.52;;
76892;SDS011;65854;51.466;7.260;2023-01-31T16:44:26;22.00;;;10.43;;
76892;SDS011;65854;51.466;7.260;2023-01-31T16:46:56;21.50;;;9.13;;
76892;SDS011;65854;51.466;7.260;2023-01-31T16:49:24;21.38;;;8.45;;
76892;SDS011;65854;51.466;7.260;2023-01-31T16:52:17;21.73;;;9.75;;
76892;SDS011;65854;51.466;7.260;2023-01-31T16:54:49;20.30;;;8.83;;
76892;SDS011;65854;51.466;7.260;2023-01-31T16:57:34;21.88;;;9.00;;
76892;SDS011;65854;51.466;7.260;2023-01-31T17:00:00;19.67;;;8.68;;
76892;SDS011;65854;51.466;7.260;2023-01-31T17:02:30;21.30;;;8.75;;
76892;SDS011;65854;51.466;7.260;2023-01-31T17:05:13;22.08;;;8.43;;
76892;SDS011;65854;51.466;7.260;2023-01-31T17:07:42;20.17;;;8.63;;
76892;SDS011;65854;51.466;7.260;2023-01-31T17:10:11;21.27;;;8.85;;
76892;SDS011;65854;51.466;7.260;2023-01-31T17:12:42;20.35;;;8.00;;
76892;SDS011;65854;51.466;7.260;2023-01-31T17:15:15;23.47;;;8.77;;
76892;SDS011;65854;51.466;7.260;2023-01-31T17:17:42;20.05;;;8.10;;
76892;SDS011;65854;51.466;7.260;2023-01-31T17:20:08;21.33;;;8.20;;
76892;SDS011;65854;51.466;7.260;2023-01-31T17:22:38;19.10;;;8.88;;
76892;SDS011;65854;51.466;7.260;2023-01-31T17:25:12;20.50;;;7.85;;
76892;SDS011;65854;51.466;7.260;2023-01-31T17:27:43;22.38;;;8.40;;
76892;SDS011;65854;51.466;7.260;2023-01-31T17:30:09;17.87;;;7.30;;